createdAt,value
2023-04-02T00:01:19.451Z,68.08
2023-04-02T00:04:22.766Z,68.09
2023-04-02T00:06:55.345Z,68.13
2023-04-02T00:09:34.289Z,68.04
2023-04-02T00:12:19.842Z,68.33
2023-04-02T00:14:58.587Z,68.29
2023-04-02T00:17:29.208Z,68.26
2023-04-02T00:20:06.506Z,68.40
2023-04-02T00:22:36.555Z,68.44
2023-04-02T00:25:16.778Z,68.31
2023-04-02T00:27:47.046Z,68.31
2023-04-02T00:30:17.337Z,68.38
2023-04-02T00:32:49.204Z,68.35
2023-04-02T00:35:26.284Z,68.30
2023-04-02T00:37:57.152Z,68.24
2023-04-02T00:40:33.285Z,68.26
2023-04-02T00:43:04.592Z,68.20
2023-04-02T00:45:39.980Z,68.39
2023-04-02T00:48:29.706Z,68.45
2023-04-02T00:51:04.142Z,68.17
2023-04-02T00:53:35.553Z,68.42
2023-04-02T00:56:19.512Z,68.21
2023-04-02T00:58:56.038Z,68.32
2023-04-02T01:01:28.750Z,68.29
2023-04-02T01:04:03.899Z,68.17
2023-04-02T01:06:38.735Z,68.12
2023-04-02T01:09:26.713Z,68.19
2023-04-02T01:12:26.692Z,68.33
2023-04-02T01:15:12.067Z,68.27
2023-04-02T01:18:09.803Z,68.39
2023-04-02T01:21:02.042Z,68.43
2023-04-02T01:23:42.198Z,68.75
2023-04-02T01:26:26.434Z,68.71
2023-04-02T01:29:12.006Z,68.76
2023-04-02T01:31:44.309Z,68.70
2023-04-02T01:34:18.700Z,68.87
2023-04-02T01:37:11.880Z,68.95
2023-04-02T01:40:11.709Z,68.79
2023-04-02T01:42:55.216Z,69.08
2023-04-02T01:45:29.266Z,68.89
2023-04-02T01:48:00.001Z,69.13
2023-04-02T01:50:37.207Z,69.13
2023-04-02T01:53:11.503Z,69.21
2023-04-02T01:55:47.474Z,69.17
2023-04-02T01:58:25.288Z,69.39
2023-04-02T02:01:06.121Z,69.65
2023-04-02T02:03:37.911Z,69.71
2023-04-02T02:06:09.590Z,69.52
2023-04-02T02:08:44.022Z,69.40
2023-04-02T02:11:18.477Z,69.63
2023-04-02T02:13:50.338Z,69.59
2023-04-02T02:16:24.408Z,69.44
2023-04-02T02:18:59.148Z,69.45
2023-04-02T02:21:41.609Z,69.56
2023-04-02T02:24:22.777Z,69.33
2023-04-02T02:27:05.035Z,69.47
2023-04-02T02:29:41.179Z,69.15
2023-04-02T02:32:17.441Z,69.31
2023-04-02T02:35:03.470Z,69.37
2023-04-02T02:37:43.117Z,69.73
2023-04-02T02:40:23.281Z,69.66
2023-04-02T02:43:00.132Z,69.50
2023-04-02T02:45:38.061Z,69.51
2023-04-02T02:48:17.890Z,69.26
2023-04-02T02:50:48.650Z,69.17
2023-04-02T02:53:23.342Z,69.06
2023-04-02T02:56:02.134Z,69.32
2023-04-02T02:58:39.066Z,69.26
2023-04-02T03:01:20.160Z,69.26
2023-04-02T03:03:57.494Z,69.34
2023-04-02T03:06:29.054Z,69.45
2023-04-02T03:09:20.914Z,69.65
2023-04-02T03:11:59.049Z,69.44
2023-04-02T03:14:37.735Z,69.53
2023-04-02T03:17:21.046Z,69.51
2023-04-02T03:20:01.850Z,69.70
2023-04-02T03:22:39.779Z,69.66
2023-04-02T03:25:27.750Z,69.68
2023-04-02T03:28:05.605Z,69.59
2023-04-02T03:30:45.362Z,69.69
2023-04-02T03:33:24.386Z,69.65
2023-04-02T03:36:06.732Z,69.67
2023-04-02T03:38:46.467Z,69.75
2023-04-02T03:41:24.229Z,69.62
2023-04-02T03:43:59.342Z,70.04
2023-04-02T03:46:38.378Z,69.73
2023-04-02T03:49:16.960Z,69.85
2023-04-02T03:51:57.850Z,70.00
2023-04-02T03:54:28.444Z,70.18
2023-04-02T03:56:59.988Z,70.29
2023-04-02T03:59:41.622Z,70.22
2023-04-02T04:02:28.347Z,70.41
2023-04-02T04:05:00.951Z,70.35
2023-04-02T04:07:39.781Z,70.45
2023-04-02T04:10:19.791Z,70.54
2023-04-02T04:12:53.307Z,70.63
2023-04-02T04:15:32.151Z,70.37
2023-04-02T04:18:11.046Z,70.71
2023-04-02T04:20:56.667Z,70.75
2023-04-02T04:23:37.538Z,70.50
2023-04-02T04:26:25.409Z,70.72
2023-04-02T04:29:16.529Z,70.64
2023-04-02T04:31:51.059Z,70.85
2023-04-02T04:34:31.983Z,70.61
2023-04-02T04:37:08.099Z,70.77
2023-04-02T04:39:52.507Z,71.03
2023-04-02T04:42:27.175Z,70.81
2023-04-02T04:45:06.180Z,71.00
2023-04-02T04:47:42.400Z,70.96
2023-04-02T04:50:20.850Z,70.98
2023-04-02T04:52:51.655Z,70.79
2023-04-02T04:55:33.099Z,70.81
2023-04-02T04:58:14.388Z,70.98
2023-04-02T05:01:02.690Z,70.78
2023-04-02T05:03:41.176Z,71.09
2023-04-02T05:06:18.957Z,70.94
2023-04-02T05:08:54.541Z,70.97
2023-04-02T05:11:35.182Z,71.02
2023-04-02T05:14:19.402Z,71.07
2023-04-02T05:16:59.620Z,71.05
2023-04-02T05:19:38.284Z,71.15
2023-04-02T05:22:22.048Z,70.99
2023-04-02T05:25:05.874Z,70.97
2023-04-02T05:27:49.342Z,71.36
2023-04-02T05:30:56.799Z,71.30
2023-04-02T05:33:31.046Z,71.07
2023-04-02T05:36:08.850Z,71.40
2023-04-02T05:38:49.220Z,71.38
2023-04-02T05:41:31.387Z,71.33
2023-04-02T05:44:18.687Z,71.55
2023-04-02T05:46:57.600Z,71.67
2023-04-02T05:49:39.239Z,71.60
2023-04-02T05:52:20.586Z,71.46
2023-04-02T05:54:57.827Z,71.61
2023-04-02T05:57:45.850Z,71.53
2023-04-02T06:00:45.781Z,71.66
2023-04-02T06:03:28.533Z,72.00
2023-04-02T06:06:07.196Z,71.82
2023-04-02T06:08:45.861Z,72.39
2023-04-02T06:11:25.220Z,72.35
2023-04-02T06:13:56.658Z,71.95
2023-04-02T06:16:36.957Z,72.10
2023-04-02T06:19:18.271Z,71.94
2023-04-02T06:24:28.961Z,71.58
2023-04-02T06:27:08.122Z,71.60
2023-04-02T06:29:44.146Z,71.46
2023-04-02T06:32:27.141Z,71.37
2023-04-02T06:34:58.268Z,71.42
2023-04-02T06:37:36.175Z,71.20
2023-04-02T06:40:44.692Z,71.14
2023-04-02T06:43:36.293Z,70.88
2023-04-02T06:46:46.511Z,71.02
2023-04-02T06:49:28.174Z,70.75
2023-04-02T06:52:11.556Z,71.09
2023-04-02T06:54:41.850Z,70.79
2023-04-02T06:57:16.195Z,70.72
2023-04-02T06:59:48.881Z,70.39
2023-04-02T07:02:37.025Z,70.35
2023-04-02T07:05:13.094Z,70.50
2023-04-02T07:07:48.358Z,70.32
2023-04-02T07:10:20.500Z,70.32
2023-04-02T07:12:51.661Z,70.32
2023-04-02T07:15:25.940Z,70.12
2023-04-02T07:17:59.367Z,70.24
2023-04-02T07:20:37.650Z,69.99
2023-04-02T07:23:10.833Z,69.75
2023-04-02T07:25:41.137Z,69.79
2023-04-02T07:28:11.169Z,69.66
2023-04-02T07:30:41.225Z,69.45
2023-04-02T07:33:16.772Z,68.86
2023-04-02T07:35:50.561Z,68.77
2023-04-02T07:38:21.946Z,68.57
2023-04-02T07:40:52.148Z,68.45
2023-04-02T07:43:23.272Z,68.40
2023-04-02T07:45:53.689Z,68.55
2023-04-02T07:48:23.788Z,68.17
2023-04-02T07:50:56.645Z,68.11
2023-04-02T07:53:32.384Z,68.23
2023-04-02T07:56:04.189Z,67.99
2023-04-02T07:58:36.339Z,67.81
2023-04-02T08:01:06.307Z,67.79
2023-04-02T08:03:36.483Z,66.96
2023-04-02T08:06:09.540Z,66.70
2023-04-02T08:08:39.603Z,66.67
2023-04-02T08:11:09.823Z,66.57
2023-04-02T08:13:40.695Z,66.50
2023-04-02T08:16:11.849Z,66.38
2023-04-02T08:18:42.402Z,66.04
2023-04-02T08:21:16.482Z,66.34
2023-04-02T08:23:47.358Z,66.51
2023-04-02T08:26:21.291Z,66.38
2023-04-02T08:28:51.704Z,66.26
2023-04-02T08:31:21.909Z,66.21
2023-04-02T08:33:51.871Z,66.32
2023-04-02T08:36:32.037Z,66.11
2023-04-02T08:39:02.180Z,66.04
2023-04-02T08:41:33.387Z,65.79
2023-04-02T08:44:18.908Z,65.85
2023-04-02T08:46:55.108Z,65.76
2023-04-02T08:49:34.003Z,65.74
2023-04-02T08:52:06.916Z,65.52
2023-04-02T08:54:44.081Z,65.26
2023-04-02T08:57:29.253Z,65.14
2023-04-02T09:00:10.945Z,64.70
2023-04-02T09:02:47.026Z,64.44
2023-04-02T09:05:25.046Z,64.35
2023-04-02T09:08:02.299Z,63.96
2023-04-02T09:10:42.635Z,63.65
2023-04-02T09:13:23.402Z,63.59
2023-04-02T09:15:59.263Z,63.73
2023-04-02T09:18:32.851Z,63.80
2023-04-02T09:21:17.545Z,63.96
2023-04-02T09:23:50.901Z,63.48
2023-04-02T09:26:26.006Z,63.02
2023-04-02T09:29:08.402Z,62.38
2023-04-02T09:31:46.138Z,61.66
2023-04-02T09:34:35.054Z,61.05
2023-04-02T09:37:12.039Z,60.38
2023-04-02T09:39:45.076Z,60.18
2023-04-02T09:42:38.298Z,59.80
2023-04-02T09:45:17.896Z,59.79
2023-04-02T09:47:48.076Z,59.98
2023-04-02T09:50:29.772Z,59.00
2023-04-02T09:53:00.253Z,58.51
2023-04-02T09:55:34.940Z,57.58
2023-04-02T09:58:16.703Z,55.05
2023-04-02T10:00:55.356Z,54.43
2023-04-02T10:03:29.714Z,54.55
2023-04-02T10:06:12.134Z,54.49
2023-04-02T10:08:44.676Z,54.58
2023-04-02T10:11:24.314Z,54.34
2023-04-02T10:14:02.273Z,52.52
2023-04-02T10:16:37.981Z,51.58
2023-04-02T10:19:18.586Z,51.56
2023-04-02T10:21:52.961Z,51.07
2023-04-02T10:24:23.378Z,50.07
2023-04-02T10:27:10.541Z,50.33
2023-04-02T10:30:06.084Z,49.85
2023-04-02T10:32:45.860Z,49.46
2023-04-02T10:35:36.296Z,49.74
2023-04-02T10:38:34.169Z,49.82
2023-04-02T10:41:19.008Z,49.61
2023-04-02T10:44:13.168Z,50.20
2023-04-02T10:47:05.281Z,50.90
2023-04-02T10:49:44.859Z,50.84
2023-04-02T10:52:22.901Z,51.05
2023-04-02T10:54:55.956Z,51.45
2023-04-02T10:57:37.032Z,51.88
2023-04-02T11:00:22.677Z,52.32
2023-04-02T11:02:59.316Z,52.75
2023-04-02T11:05:40.508Z,53.34
2023-04-02T11:08:21.539Z,53.98
2023-04-02T11:10:58.487Z,54.82
2023-04-02T11:13:35.897Z,55.24
2023-04-02T11:16:10.112Z,55.96
2023-04-02T11:18:40.226Z,56.97
2023-04-02T11:21:11.685Z,56.26
2023-04-02T11:23:59.329Z,55.30
2023-04-02T11:26:47.522Z,54.15
2023-04-02T11:29:26.375Z,53.75
2023-04-02T11:32:29.995Z,53.26
2023-04-02T11:35:07.425Z,52.32
2023-04-02T11:37:41.222Z,52.56
2023-04-02T11:40:41.623Z,52.49
2023-04-02T11:43:41.648Z,51.96
2023-04-02T11:46:41.835Z,51.46
2023-04-02T11:49:59.199Z,51.55
2023-04-02T11:52:34.039Z,51.44
2023-04-02T11:55:19.409Z,51.82
2023-04-02T11:58:21.265Z,51.73
2023-04-02T12:01:30.232Z,51.97
2023-04-02T12:04:53.127Z,52.01
2023-04-02T12:07:52.459Z,52.24
2023-04-02T12:10:25.672Z,51.54
2023-04-02T12:12:55.857Z,51.73
2023-04-02T12:15:37.240Z,52.24
2023-04-02T12:18:18.739Z,51.76
2023-04-02T12:20:55.197Z,51.59
2023-04-02T12:23:32.727Z,51.47
2023-04-02T12:26:06.834Z,51.38
2023-04-02T12:28:38.327Z,50.95
2023-04-02T12:31:17.887Z,51.50
2023-04-02T12:33:48.998Z,51.30
2023-04-02T12:36:23.859Z,51.46
2023-04-02T12:38:58.389Z,51.29
2023-04-02T12:41:32.308Z,52.30
2023-04-02T12:44:04.845Z,51.89
2023-04-02T12:46:37.774Z,51.85
2023-04-02T12:49:10.492Z,51.11
2023-04-02T12:51:41.675Z,50.65
2023-04-02T12:54:20.959Z,51.46
2023-04-02T12:56:52.548Z,51.88
2023-04-02T12:59:32.311Z,51.90
2023-04-02T13:02:04.462Z,52.33
2023-04-02T13:04:34.613Z,53.23
2023-04-02T13:07:05.116Z,54.20
2023-04-02T13:09:47.721Z,55.00
2023-04-02T13:12:35.595Z,56.03
2023-04-02T13:15:08.750Z,56.88
2023-04-02T13:17:44.935Z,57.73
2023-04-02T13:20:32.484Z,58.25
2023-04-02T13:23:05.607Z,59.07
2023-04-02T13:25:40.186Z,59.07
2023-04-02T13:28:12.911Z,59.55
2023-04-02T13:30:43.045Z,60.00
2023-04-02T13:33:13.418Z,61.19
2023-04-02T13:35:43.734Z,62.36
2023-04-02T13:38:14.222Z,64.08
2023-04-02T13:40:47.161Z,65.25
2023-04-02T13:43:22.024Z,66.25
2023-04-02T13:45:55.894Z,67.33
2023-04-02T13:48:29.220Z,67.41
2023-04-02T13:50:59.164Z,67.48
2023-04-02T13:53:36.744Z,67.79
2023-04-02T13:56:10.273Z,68.07
2023-04-02T13:58:40.887Z,67.96
2023-04-02T14:01:12.247Z,68.39
2023-04-02T14:03:44.023Z,68.96
2023-04-02T14:06:22.960Z,68.95
2023-04-02T14:09:05.839Z,69.43
2023-04-02T14:11:53.727Z,69.23
2023-04-02T14:14:45.788Z,69.20
2023-04-02T14:17:28.418Z,69.85
2023-04-02T14:20:18.224Z,70.45
2023-04-02T14:23:06.486Z,71.13
2023-04-02T14:25:51.502Z,71.60
2023-04-02T14:28:38.272Z,72.39
2023-04-02T14:31:21.610Z,72.91
2023-04-02T14:34:05.492Z,73.26
2023-04-02T14:36:56.545Z,73.67
2023-04-02T14:39:40.977Z,73.69
2023-04-02T14:42:18.936Z,74.02
2023-04-02T14:45:01.982Z,74.49
2023-04-02T14:47:40.099Z,74.58
2023-04-02T14:50:16.861Z,74.25
2023-04-02T14:52:54.018Z,74.20
2023-04-02T14:55:36.525Z,73.86
2023-04-02T14:58:13.531Z,74.30
2023-04-02T15:00:54.817Z,74.36
2023-04-02T15:03:28.118Z,74.94
2023-04-02T15:06:03.153Z,75.40
2023-04-02T15:08:39.385Z,75.57
2023-04-02T15:11:18.227Z,75.83
2023-04-02T15:13:56.346Z,76.25
2023-04-02T15:16:29.769Z,76.48
2023-04-02T15:19:02.838Z,77.04
2023-04-02T15:21:57.552Z,77.22
2023-04-02T15:24:37.948Z,77.81
2023-04-02T15:27:26.202Z,78.53
2023-04-02T15:30:06.468Z,78.47
2023-04-02T15:32:43.713Z,78.27
2023-04-02T15:35:27.980Z,78.54
2023-04-02T15:38:05.752Z,77.56
2023-04-02T15:40:48.855Z,78.00
2023-04-02T15:43:27.737Z,78.14
2023-04-02T15:46:15.686Z,78.71
2023-04-02T15:49:16.310Z,79.24
2023-04-02T15:52:08.489Z,79.48
2023-04-02T15:54:58.737Z,79.68
2023-04-02T15:57:58.757Z,79.99
2023-04-02T16:00:31.466Z,79.86
2023-04-02T16:03:47.933Z,79.23
2023-04-02T16:06:30.145Z,78.88
2023-04-02T16:09:10.594Z,79.10
2023-04-02T16:11:40.679Z,78.50
2023-04-02T16:14:25.374Z,78.13
2023-04-02T16:17:08.070Z,78.80
2023-04-02T16:19:50.571Z,78.59
2023-04-02T16:22:28.459Z,78.67
2023-04-02T16:25:04.337Z,78.97
2023-04-02T16:27:41.210Z,79.03
2023-04-02T16:30:44.042Z,79.49
2023-04-02T16:33:28.697Z,79.72
2023-04-02T16:36:24.307Z,79.79
2023-04-02T16:39:05.058Z,80.06
2023-04-02T16:41:50.867Z,79.65
2023-04-02T16:44:36.352Z,79.67
2023-04-02T16:47:24.978Z,79.83
2023-04-02T16:50:03.779Z,79.62
2023-04-02T16:52:50.618Z,79.94
2023-04-02T16:55:37.744Z,80.27
2023-04-02T16:58:26.393Z,80.76
2023-04-02T17:01:02.554Z,80.57
2023-04-02T17:03:53.878Z,80.70
2023-04-02T17:06:41.810Z,81.04
2023-04-02T17:09:32.476Z,81.31
2023-04-02T17:12:17.518Z,79.73
2023-04-02T17:14:56.256Z,78.62
2023-04-02T17:17:28.713Z,78.39
2023-04-02T17:20:02.881Z,78.43
2023-04-02T17:22:34.836Z,78.39
2023-04-02T17:25:08.403Z,79.06
2023-04-02T17:27:46.367Z,79.23
2023-04-02T17:30:21.387Z,79.57
2023-04-02T17:32:51.894Z,79.67
2023-04-02T17:35:34.918Z,79.58
2023-04-02T17:38:16.885Z,79.35
2023-04-02T17:41:02.279Z,80.21
2023-04-02T17:43:48.302Z,80.12
2023-04-02T17:46:30.070Z,80.46
2023-04-02T17:49:11.307Z,79.94
2023-04-02T17:51:46.976Z,80.30
2023-04-02T17:54:34.006Z,79.96
2023-04-02T17:57:26.803Z,79.96
2023-04-02T18:00:17.301Z,79.89
2023-04-02T18:03:12.768Z,79.46
2023-04-02T18:05:53.308Z,79.61
2023-04-02T18:08:34.261Z,79.57
2023-04-02T18:11:13.330Z,79.49
2023-04-02T18:13:51.869Z,79.58
2023-04-02T18:16:44.416Z,79.63
2023-04-02T18:19:26.025Z,79.73
2023-04-02T18:22:10.866Z,79.28
2023-04-02T18:24:55.347Z,79.30
2023-04-02T18:27:56.836Z,78.63
2023-04-02T18:30:34.644Z,79.70
2023-04-02T18:33:38.520Z,79.17
2023-04-02T18:36:23.113Z,77.85
2023-04-02T18:39:05.173Z,77.19
2023-04-02T18:41:49.135Z,76.82
2023-04-02T18:44:36.967Z,76.39
2023-04-02T18:47:20.096Z,76.35
2023-04-02T18:50:13.858Z,75.99
2023-04-02T18:52:44.598Z,75.44
2023-04-02T18:55:21.642Z,75.44
2023-04-02T18:57:55.990Z,74.97
2023-04-02T19:00:33.980Z,75.12
2023-04-02T19:03:13.109Z,75.16
2023-04-02T19:05:54.105Z,75.34
2023-04-02T19:08:32.115Z,75.40
2023-04-02T19:11:07.114Z,75.63
2023-04-02T19:13:37.817Z,76.23
2023-04-02T19:16:43.906Z,76.27
2023-04-02T19:19:23.006Z,76.75
2023-04-02T19:22:14.033Z,76.65
2023-04-02T19:25:01.322Z,76.58
2023-04-02T19:27:39.877Z,76.40
2023-04-02T19:30:35.109Z,76.37
2023-04-02T19:33:20.996Z,75.66
2023-04-02T19:36:00.293Z,74.92
2023-04-02T19:38:52.378Z,74.68
2023-04-02T19:41:33.139Z,73.58
2023-04-02T19:44:05.125Z,72.73
2023-04-02T19:46:35.712Z,72.43
2023-04-02T19:49:12.726Z,72.05
2023-04-02T19:51:43.726Z,71.46
2023-04-02T19:54:16.551Z,71.11
2023-04-02T19:56:47.712Z,71.07
2023-04-02T19:59:18.955Z,70.30
2023-04-02T20:01:50.108Z,69.81
2023-04-02T20:04:23.471Z,69.50
2023-04-02T20:06:54.525Z,69.11
2023-04-02T20:09:27.888Z,69.41
2023-04-02T20:12:01.217Z,69.24
2023-04-02T20:14:31.229Z,69.82
2023-04-02T20:17:02.143Z,69.44
2023-04-02T20:19:32.314Z,69.94
2023-04-02T20:22:02.902Z,70.20
2023-04-02T20:24:36.743Z,70.17
2023-04-02T20:27:07.010Z,70.06
2023-04-02T20:29:37.148Z,70.17
2023-04-02T20:32:07.594Z,70.30
2023-04-02T20:34:38.712Z,69.96
2023-04-02T20:37:08.774Z,69.25
2023-04-02T20:39:41.983Z,69.05
2023-04-02T20:42:13.459Z,68.81
2023-04-02T20:44:43.679Z,68.67
2023-04-02T20:47:13.621Z,68.62
2023-04-02T20:49:44.001Z,68.28
2023-04-02T20:52:14.104Z,68.10
2023-04-02T20:54:46.896Z,67.68
2023-04-02T20:57:19.769Z,67.54
2023-04-02T20:59:55.148Z,67.65
2023-04-02T21:02:25.461Z,67.01
2023-04-02T21:04:56.559Z,67.00
2023-04-02T21:07:27.141Z,67.18
2023-04-02T21:09:59.936Z,66.99
2023-04-02T21:12:31.037Z,67.01
2023-04-02T21:15:02.749Z,67.08
2023-04-02T21:17:33.718Z,66.81
2023-04-02T21:20:05.616Z,67.12
2023-04-02T21:22:37.392Z,66.92
2023-04-02T21:25:11.517Z,67.12
2023-04-02T21:27:43.254Z,66.73
2023-04-02T21:30:17.216Z,67.01
2023-04-02T21:32:47.862Z,67.02
2023-04-02T21:35:20.243Z,66.89
2023-04-02T21:37:56.283Z,66.84
2023-04-02T21:40:33.320Z,67.53
2023-04-02T21:43:03.597Z,67.22
2023-04-02T21:45:33.764Z,67.01
2023-04-02T21:48:03.933Z,67.25
2023-04-02T21:50:34.179Z,66.91
2023-04-02T21:53:04.357Z,67.01
2023-04-02T21:55:36.934Z,66.91
2023-04-02T21:58:07.307Z,67.33
2023-04-02T22:00:37.720Z,66.35
2023-04-02T22:03:13.577Z,66.10
2023-04-02T22:05:46.545Z,66.45
2023-04-02T22:08:16.537Z,66.22
2023-04-02T22:10:49.314Z,66.76
2023-04-02T22:13:19.310Z,66.73
2023-04-02T22:15:49.233Z,67.19
2023-04-02T22:18:19.478Z,67.26
2023-04-02T22:20:49.512Z,67.44
2023-04-02T22:23:20.592Z,67.65
2023-04-02T22:25:53.334Z,68.06
2023-04-02T22:28:24.396Z,68.57
2023-04-02T22:30:54.647Z,68.71
2023-04-02T22:33:27.416Z,69.38
2023-04-02T22:35:57.372Z,69.29
2023-04-02T22:38:27.880Z,70.00
2023-04-02T22:41:10.027Z,70.66
2023-04-02T22:43:40.786Z,70.89
2023-04-02T22:46:14.023Z,71.25
2023-04-02T22:48:45.298Z,71.72
2023-04-02T22:51:17.905Z,72.23
2023-04-02T22:53:48.404Z,72.55
2023-04-02T22:56:24.449Z,73.02
2023-04-02T22:58:54.697Z,73.36
2023-04-02T23:01:28.967Z,73.61
2023-04-02T23:03:59.386Z,73.97
2023-04-02T23:06:30.242Z,74.65
2023-04-02T23:09:00.774Z,74.57
2023-04-02T23:11:33.462Z,74.69
2023-04-02T23:14:03.468Z,74.76
2023-04-02T23:16:33.578Z,75.17
2023-04-02T23:19:04.056Z,75.51
2023-04-02T23:21:34.037Z,75.60
2023-04-02T23:24:04.085Z,75.62
2023-04-02T23:26:36.700Z,75.32
2023-04-02T23:29:06.977Z,75.64
2023-04-02T23:31:37.411Z,75.94
2023-04-02T23:34:07.422Z,75.83
2023-04-02T23:36:38.227Z,75.86
2023-04-02T23:39:10.918Z,76.17
2023-04-02T23:41:45.443Z,76.09
2023-04-02T23:44:15.647Z,76.35
2023-04-02T23:46:45.977Z,76.85
2023-04-02T23:49:16.670Z,76.28
2023-04-02T23:51:46.793Z,76.29
2023-04-02T23:54:17.855Z,76.38
2023-04-02T23:56:50.628Z,76.87
2023-04-02T23:59:20.709Z,76.86
